sensor_id;sensor_type;location;lat;lon;timestamp;P1;durP1;ratioP1;P2;durP2;ratioP2
7361;SDS011;3721;44.490;11.220;2022-07-21T00:01:45;17.00;;;9.73;;
7361;SDS011;3721;44.490;11.220;2022-07-21T00:04:11;15.63;;;9.50;;
7361;SDS011;3721;44.490;11.220;2022-07-21T00:06:37;13.50;;;8.90;;
7361;SDS011;3721;44.490;11.220;2022-07-21T00:09:03;15.53;;;9.73;;
7361;SDS011;3721;44.490;11.220;2022-07-21T00:11:29;13.87;;;9.77;;
7361;SDS011;3721;44.490;11.220;2022-07-21T00:13:54;12.13;;;9.73;;
7361;SDS011;3721;44.490;11.220;2022-07-21T00:16:20;14.07;;;9.20;;
7361;SDS011;3721;44.490;11.220;2022-07-21T00:18:46;15.30;;;9.90;;
7361;SDS011;3721;44.490;11.220;2022-07-21T00:21:12;12.70;;;9.80;;
7361;SDS011;3721;44.490;11.220;2022-07-21T00:23:37;13.60;;;8.60;;
7361;SDS011;3721;44.490;11.220;2022-07-21T00:26:04;16.50;;;9.80;;
7361;SDS011;3721;44.490;11.220;2022-07-21T00:28:30;12.57;;;9.43;;
7361;SDS011;3721;44.490;11.220;2022-07-21T00:30:56;13.70;;;9.47;;
7361;SDS011;3721;44.490;11.220;2022-07-21T00:33:21;16.27;;;9.90;;
7361;SDS011;3721;44.490;11.220;2022-07-21T00:35:47;14.07;;;9.20;;
7361;SDS011;3721;44.490;11.220;2022-07-21T00:38:13;11.83;;;8.93;;
7361;SDS011;3721;44.490;11.220;2022-07-21T00:40:39;11.90;;;8.90;;
7361;SDS011;3721;44.490;11.220;2022-07-21T00:43:05;16.20;;;9.53;;
7361;SDS011;3721;44.490;11.220;2022-07-21T00:45:31;16.50;;;9.30;;
7361;SDS011;3721;44.490;11.220;2022-07-21T00:47:57;12.80;;;8.90;;
7361;SDS011;3721;44.490;11.220;2022-07-21T00:50:22;13.13;;;9.57;;
7361;SDS011;3721;44.490;11.220;2022-07-21T00:52:49;17.70;;;9.73;;
7361;SDS011;3721;44.490;11.220;2022-07-21T00:55:17;14.87;;;8.87;;
7361;SDS011;3721;44.490;11.220;2022-07-21T00:57:44;11.93;;;8.80;;
7361;SDS011;3721;44.490;11.220;2022-07-21T01:00:15;14.03;;;8.37;;
7361;SDS011;3721;44.490;11.220;2022-07-21T01:02:43;17.43;;;9.23;;
7361;SDS011;3721;44.490;11.220;2022-07-21T01:05:09;14.60;;;9.53;;
7361;SDS011;3721;44.490;11.220;2022-07-21T01:07:43;16.07;;;8.57;;
7361;SDS011;3721;44.490;11.220;2022-07-21T01:10:14;13.90;;;9.60;;
7361;SDS011;3721;44.490;11.220;2022-07-21T01:12:40;14.33;;;10.10;;
7361;SDS011;3721;44.490;11.220;2022-07-21T01:15:07;12.60;;;9.20;;
7361;SDS011;3721;44.490;11.220;2022-07-21T01:17:34;13.63;;;9.67;;
7361;SDS011;3721;44.490;11.220;2022-07-21T01:20:04;12.87;;;9.30;;
7361;SDS011;3721;44.490;11.220;2022-07-21T01:22:34;16.23;;;10.00;;
7361;SDS011;3721;44.490;11.220;2022-07-21T01:25:00;17.00;;;11.10;;
7361;SDS011;3721;44.490;11.220;2022-07-21T01:27:26;16.43;;;10.80;;
7361;SDS011;3721;44.490;11.220;2022-07-21T01:29:53;16.17;;;10.40;;
7361;SDS011;3721;44.490;11.220;2022-07-21T01:32:19;16.53;;;9.27;;
7361;SDS011;3721;44.490;11.220;2022-07-21T01:34:45;15.70;;;9.03;;
7361;SDS011;3721;44.490;11.220;2022-07-21T01:37:11;12.60;;;8.60;;
7361;SDS011;3721;44.490;11.220;2022-07-21T01:39:37;12.20;;;9.17;;
7361;SDS011;3721;44.490;11.220;2022-07-21T01:42:21;10.57;;;8.27;;
7361;SDS011;3721;44.490;11.220;2022-07-21T01:44:48;11.40;;;9.00;;
7361;SDS011;3721;44.490;11.220;2022-07-21T01:47:14;14.13;;;8.50;;
7361;SDS011;3721;44.490;11.220;2022-07-21T01:49:42;12.70;;;9.10;;
7361;SDS011;3721;44.490;11.220;2022-07-21T01:52:09;11.37;;;8.00;;
7361;SDS011;3721;44.490;11.220;2022-07-21T01:54:35;12.23;;;8.13;;
7361;SDS011;3721;44.490;11.220;2022-07-21T01:57:01;10.70;;;8.73;;
7361;SDS011;3721;44.490;11.220;2022-07-21T01:59:27;12.17;;;8.47;;
7361;SDS011;3721;44.490;11.220;2022-07-21T02:01:52;14.20;;;8.50;;
7361;SDS011;3721;44.490;11.220;2022-07-21T02:04:18;13.50;;;8.70;;
7361;SDS011;3721;44.490;11.220;2022-07-21T02:06:44;9.87;;;7.90;;
7361;SDS011;3721;44.490;11.220;2022-07-21T02:09:10;13.93;;;8.13;;
7361;SDS011;3721;44.490;11.220;2022-07-21T02:11:36;11.20;;;8.40;;
7361;SDS011;3721;44.490;11.220;2022-07-21T02:14:02;15.77;;;9.07;;
7361;SDS011;3721;44.490;11.220;2022-07-21T02:16:28;12.70;;;8.57;;
7361;SDS011;3721;44.490;11.220;2022-07-21T02:18:54;12.87;;;8.63;;
7361;SDS011;3721;44.490;11.220;2022-07-21T02:21:20;18.60;;;9.40;;
7361;SDS011;3721;44.490;11.220;2022-07-21T02:23:46;11.63;;;8.20;;
7361;SDS011;3721;44.490;11.220;2022-07-21T02:26:11;12.40;;;8.90;;
7361;SDS011;3721;44.490;11.220;2022-07-21T02:28:37;13.20;;;8.70;;
7361;SDS011;3721;44.490;11.220;2022-07-21T02:31:04;12.13;;;8.27;;
7361;SDS011;3721;44.490;11.220;2022-07-21T02:33:30;11.90;;;8.00;;
7361;SDS011;3721;44.490;11.220;2022-07-21T02:35:55;9.93;;;8.13;;
7361;SDS011;3721;44.490;11.220;2022-07-21T02:38:21;16.23;;;9.47;;
7361;SDS011;3721;44.490;11.220;2022-07-21T02:40:47;12.00;;;8.20;;
7361;SDS011;3721;44.490;11.220;2022-07-21T02:43:13;11.77;;;8.50;;
7361;SDS011;3721;44.490;11.220;2022-07-21T02:45:39;12.73;;;7.67;;
7361;SDS011;3721;44.490;11.220;2022-07-21T02:48:08;10.17;;;8.20;;
7361;SDS011;3721;44.490;11.220;2022-07-21T02:50:36;11.50;;;8.70;;
7361;SDS011;3721;44.490;11.220;2022-07-21T02:53:06;11.53;;;8.10;;
7361;SDS011;3721;44.490;11.220;2022-07-21T02:55:34;12.40;;;8.13;;
7361;SDS011;3721;44.490;11.220;2022-07-21T02:58:11;12.43;;;8.83;;
7361;SDS011;3721;44.490;11.220;2022-07-21T03:00:42;10.80;;;8.20;;
7361;SDS011;3721;44.490;11.220;2022-07-21T03:03:18;10.60;;;7.77;;
7361;SDS011;3721;44.490;11.220;2022-07-21T03:05:45;12.23;;;8.33;;
7361;SDS011;3721;44.490;11.220;2022-07-21T03:08:12;15.27;;;9.80;;
7361;SDS011;3721;44.490;11.220;2022-07-21T03:10:38;11.17;;;8.20;;
7361;SDS011;3721;44.490;11.220;2022-07-21T03:13:05;12.13;;;8.20;;
7361;SDS011;3721;44.490;11.220;2022-07-21T03:15:31;12.23;;;8.70;;
7361;SDS011;3721;44.490;11.220;2022-07-21T03:17:58;12.20;;;8.90;;
7361;SDS011;3721;44.490;11.220;2022-07-21T03:20:27;10.17;;;7.60;;
7361;SDS011;3721;44.490;11.220;2022-07-21T03:22:56;12.17;;;8.30;;
7361;SDS011;3721;44.490;11.220;2022-07-21T03:25:22;12.20;;;7.93;;
7361;SDS011;3721;44.490;11.220;2022-07-21T03:27:48;13.50;;;8.20;;
7361;SDS011;3721;44.490;11.220;2022-07-21T03:30:15;10.97;;;8.40;;
7361;SDS011;3721;44.490;11.220;2022-07-21T03:32:42;12.90;;;7.60;;
7361;SDS011;3721;44.490;11.220;2022-07-21T03:35:09;11.50;;;7.97;;
7361;SDS011;3721;44.490;11.220;2022-07-21T03:37:40;11.70;;;8.97;;
7361;SDS011;3721;44.490;11.220;2022-07-21T03:40:11;9.27;;;7.37;;
7361;SDS011;3721;44.490;11.220;2022-07-21T03:42:38;10.47;;;7.27;;
7361;SDS011;3721;44.490;11.220;2022-07-21T03:45:04;12.07;;;7.80;;
7361;SDS011;3721;44.490;11.220;2022-07-21T03:47:31;8.87;;;6.90;;
7361;SDS011;3721;44.490;11.220;2022-07-21T03:49:57;12.97;;;8.67;;
7361;SDS011;3721;44.490;11.220;2022-07-21T03:52:23;13.67;;;8.67;;
7361;SDS011;3721;44.490;11.220;2022-07-21T03:54:49;13.03;;;7.57;;
7361;SDS011;3721;44.490;11.220;2022-07-21T03:57:14;11.77;;;8.10;;
7361;SDS011;3721;44.490;11.220;2022-07-21T03:59:40;14.53;;;8.40;;
7361;SDS011;3721;44.490;11.220;2022-07-21T04:02:06;10.47;;;7.20;;
7361;SDS011;3721;44.490;11.220;2022-07-21T04:04:32;12.00;;;7.37;;
7361;SDS011;3721;44.490;11.220;2022-07-21T04:06:57;10.73;;;7.40;;
7361;SDS011;3721;44.490;11.220;2022-07-21T04:09:23;12.47;;;8.07;;
7361;SDS011;3721;44.490;11.220;2022-07-21T04:11:49;10.40;;;6.63;;
7361;SDS011;3721;44.490;11.220;2022-07-21T04:14:15;12.63;;;7.93;;
7361;SDS011;3721;44.490;11.220;2022-07-21T04:16:40;9.60;;;7.50;;
7361;SDS011;3721;44.490;11.220;2022-07-21T04:19:06;11.60;;;7.20;;
7361;SDS011;3721;44.490;11.220;2022-07-21T04:21:32;9.93;;;7.53;;
7361;SDS011;3721;44.490;11.220;2022-07-21T04:23:58;9.57;;;7.37;;
7361;SDS011;3721;44.490;11.220;2022-07-21T04:26:24;13.23;;;8.10;;
7361;SDS011;3721;44.490;11.220;2022-07-21T04:28:49;12.90;;;7.27;;
7361;SDS011;3721;44.490;11.220;2022-07-21T04:31:15;21.50;;;8.37;;
7361;SDS011;3721;44.490;11.220;2022-07-21T04:33:41;10.70;;;7.80;;
7361;SDS011;3721;44.490;11.220;2022-07-21T04:36:07;13.70;;;8.20;;
7361;SDS011;3721;44.490;11.220;2022-07-21T04:38:33;11.73;;;8.03;;
7361;SDS011;3721;44.490;11.220;2022-07-21T04:40:59;11.30;;;7.80;;
7361;SDS011;3721;44.490;11.220;2022-07-21T04:43:24;12.60;;;7.63;;
7361;SDS011;3721;44.490;11.220;2022-07-21T04:45:50;10.00;;;6.83;;
7361;SDS011;3721;44.490;11.220;2022-07-21T04:48:16;11.83;;;7.17;;
7361;SDS011;3721;44.490;11.220;2022-07-21T04:50:42;11.00;;;7.67;;
7361;SDS011;3721;44.490;11.220;2022-07-21T04:53:07;11.10;;;8.20;;
7361;SDS011;3721;44.490;11.220;2022-07-21T04:55:36;10.63;;;8.20;;
7361;SDS011;3721;44.490;11.220;2022-07-21T04:58:02;12.50;;;7.77;;
7361;SDS011;3721;44.490;11.220;2022-07-21T05:00:28;11.30;;;7.17;;
7361;SDS011;3721;44.490;11.220;2022-07-21T05:02:55;10.67;;;8.20;;
7361;SDS011;3721;44.490;11.220;2022-07-21T05:05:21;10.63;;;7.17;;
7361;SDS011;3721;44.490;11.220;2022-07-21T05:07:48;12.90;;;7.40;;
7361;SDS011;3721;44.490;11.220;2022-07-21T05:10:15;10.30;;;7.53;;
7361;SDS011;3721;44.490;11.220;2022-07-21T05:12:42;11.70;;;7.13;;
7361;SDS011;3721;44.490;11.220;2022-07-21T05:15:08;17.30;;;8.30;;
7361;SDS011;3721;44.490;11.220;2022-07-21T05:17:36;14.70;;;8.90;;
7361;SDS011;3721;44.490;11.220;2022-07-21T05:20:03;13.23;;;8.53;;
7361;SDS011;3721;44.490;11.220;2022-07-21T05:22:29;17.83;;;8.97;;
7361;SDS011;3721;44.490;11.220;2022-07-21T05:24:57;20.70;;;9.23;;
7361;SDS011;3721;44.490;11.220;2022-07-21T05:27:23;14.10;;;8.03;;
7361;SDS011;3721;44.490;11.220;2022-07-21T05:29:49;14.00;;;8.70;;
7361;SDS011;3721;44.490;11.220;2022-07-21T05:32:15;12.60;;;9.10;;
7361;SDS011;3721;44.490;11.220;2022-07-21T05:34:41;13.80;;;9.07;;
7361;SDS011;3721;44.490;11.220;2022-07-21T05:37:06;14.53;;;9.10;;
7361;SDS011;3721;44.490;11.220;2022-07-21T05:39:32;17.67;;;9.17;;
7361;SDS011;3721;44.490;11.220;2022-07-21T05:41:58;13.87;;;9.23;;
7361;SDS011;3721;44.490;11.220;2022-07-21T05:44:24;13.00;;;8.40;;
7361;SDS011;3721;44.490;11.220;2022-07-21T05:46:50;12.27;;;8.10;;
7361;SDS011;3721;44.490;11.220;2022-07-21T05:49:15;13.27;;;7.87;;
7361;SDS011;3721;44.490;11.220;2022-07-21T05:51:41;14.13;;;7.20;;
7361;SDS011;3721;44.490;11.220;2022-07-21T05:54:07;12.67;;;7.83;;
7361;SDS011;3721;44.490;11.220;2022-07-21T05:56:34;10.60;;;6.70;;
7361;SDS011;3721;44.490;11.220;2022-07-21T05:59:00;14.47;;;7.70;;
7361;SDS011;3721;44.490;11.220;2022-07-21T06:01:26;12.43;;;7.63;;
7361;SDS011;3721;44.490;11.220;2022-07-21T06:03:52;17.47;;;7.90;;
7361;SDS011;3721;44.490;11.220;2022-07-21T06:06:18;15.43;;;7.77;;
7361;SDS011;3721;44.490;11.220;2022-07-21T06:08:45;12.00;;;7.10;;
7361;SDS011;3721;44.490;11.220;2022-07-21T06:11:14;9.37;;;7.20;;
7361;SDS011;3721;44.490;11.220;2022-07-21T06:13:42;10.30;;;7.70;;
7361;SDS011;3721;44.490;11.220;2022-07-21T06:16:08;14.07;;;7.10;;
7361;SDS011;3721;44.490;11.220;2022-07-21T06:18:35;12.13;;;7.80;;
7361;SDS011;3721;44.490;11.220;2022-07-21T06:21:06;13.70;;;7.60;;
7361;SDS011;3721;44.490;11.220;2022-07-21T06:23:32;13.27;;;8.00;;
7361;SDS011;3721;44.490;11.220;2022-07-21T06:25:57;10.07;;;8.03;;
7361;SDS011;3721;44.490;11.220;2022-07-21T06:28:23;12.37;;;7.97;;
7361;SDS011;3721;44.490;11.220;2022-07-21T06:30:49;23.23;;;8.90;;
7361;SDS011;3721;44.490;11.220;2022-07-21T06:33:16;11.97;;;7.80;;
7361;SDS011;3721;44.490;11.220;2022-07-21T06:35:42;14.90;;;8.70;;
7361;SDS011;3721;44.490;11.220;2022-07-21T06:38:08;14.07;;;7.80;;
7361;SDS011;3721;44.490;11.220;2022-07-21T06:40:34;15.70;;;8.40;;
7361;SDS011;3721;44.490;11.220;2022-07-21T06:43:00;11.70;;;8.50;;
7361;SDS011;3721;44.490;11.220;2022-07-21T06:45:26;14.70;;;8.80;;
7361;SDS011;3721;44.490;11.220;2022-07-21T06:48:00;9.90;;;8.00;;
7361;SDS011;3721;44.490;11.220;2022-07-21T06:50:28;14.17;;;8.57;;
7361;SDS011;3721;44.490;11.220;2022-07-21T06:52:54;15.97;;;10.20;;
7361;SDS011;3721;44.490;11.220;2022-07-21T06:55:21;11.10;;;7.83;;
7361;SDS011;3721;44.490;11.220;2022-07-21T06:57:47;14.47;;;8.80;;
7361;SDS011;3721;44.490;11.220;2022-07-21T07:00:13;13.70;;;8.73;;
7361;SDS011;3721;44.490;11.220;2022-07-21T07:02:40;14.07;;;9.00;;
7361;SDS011;3721;44.490;11.220;2022-07-21T07:05:07;17.73;;;8.57;;
7361;SDS011;3721;44.490;11.220;2022-07-21T07:07:33;12.67;;;8.73;;
7361;SDS011;3721;44.490;11.220;2022-07-21T07:09:59;16.03;;;8.90;;
7361;SDS011;3721;44.490;11.220;2022-07-21T07:12:25;10.70;;;8.00;;
7361;SDS011;3721;44.490;11.220;2022-07-21T07:14:51;14.00;;;9.23;;
7361;SDS011;3721;44.490;11.220;2022-07-21T07:17:17;11.40;;;8.57;;
7361;SDS011;3721;44.490;11.220;2022-07-21T07:19:44;10.87;;;7.37;;
7361;SDS011;3721;44.490;11.220;2022-07-21T07:22:14;11.77;;;7.90;;
7361;SDS011;3721;44.490;11.220;2022-07-21T07:24:40;14.73;;;8.33;;
7361;SDS011;3721;44.490;11.220;2022-07-21T07:27:06;10.70;;;7.97;;
7361;SDS011;3721;44.490;11.220;2022-07-21T07:29:32;15.83;;;8.50;;
7361;SDS011;3721;44.490;11.220;2022-07-21T07:31:58;7.63;;;6.33;;
7361;SDS011;3721;44.490;11.220;2022-07-21T07:34:24;10.27;;;7.40;;
7361;SDS011;3721;44.490;11.220;2022-07-21T07:36:50;12.90;;;8.07;;
7361;SDS011;3721;44.490;11.220;2022-07-21T07:39:16;8.80;;;6.83;;
7361;SDS011;3721;44.490;11.220;2022-07-21T07:41:45;13.60;;;6.37;;
7361;SDS011;3721;44.490;11.220;2022-07-21T07:44:10;12.57;;;6.70;;
7361;SDS011;3721;44.490;11.220;2022-07-21T07:46:36;12.83;;;6.40;;
7361;SDS011;3721;44.490;11.220;2022-07-21T07:49:02;12.60;;;6.73;;
7361;SDS011;3721;44.490;11.220;2022-07-21T07:51:28;8.80;;;6.40;;
7361;SDS011;3721;44.490;11.220;2022-07-21T07:53:53;9.13;;;6.10;;
7361;SDS011;3721;44.490;11.220;2022-07-21T07:56:19;12.80;;;6.40;;
7361;SDS011;3721;44.490;11.220;2022-07-21T07:58:45;10.17;;;6.93;;
7361;SDS011;3721;44.490;11.220;2022-07-21T08:01:11;13.47;;;6.53;;
7361;SDS011;3721;44.490;11.220;2022-07-21T08:03:37;14.23;;;6.43;;
7361;SDS011;3721;44.490;11.220;2022-07-21T08:06:02;8.00;;;5.70;;
7361;SDS011;3721;44.490;11.220;2022-07-21T08:08:29;13.67;;;6.63;;
7361;SDS011;3721;44.490;11.220;2022-07-21T08:10:56;9.07;;;6.13;;
7361;SDS011;3721;44.490;11.220;2022-07-21T08:13:21;14.10;;;6.30;;
7361;SDS011;3721;44.490;11.220;2022-07-21T08:15:48;10.80;;;6.53;;
7361;SDS011;3721;44.490;11.220;2022-07-21T08:18:15;9.50;;;6.70;;
7361;SDS011;3721;44.490;11.220;2022-07-21T08:20:42;17.73;;;6.97;;
7361;SDS011;3721;44.490;11.220;2022-07-21T08:23:08;14.77;;;6.90;;
7361;SDS011;3721;44.490;11.220;2022-07-21T08:25:34;12.57;;;6.63;;
7361;SDS011;3721;44.490;11.220;2022-07-21T08:28:00;10.23;;;7.50;;
7361;SDS011;3721;44.490;11.220;2022-07-21T08:30:26;13.07;;;7.63;;
7361;SDS011;3721;44.490;11.220;2022-07-21T08:32:52;9.13;;;6.83;;
7361;SDS011;3721;44.490;11.220;2022-07-21T08:35:18;9.70;;;7.00;;
7361;SDS011;3721;44.490;11.220;2022-07-21T08:37:52;10.47;;;7.27;;
7361;SDS011;3721;44.490;11.220;2022-07-21T08:40:19;12.10;;;7.27;;
7361;SDS011;3721;44.490;11.220;2022-07-21T08:42:48;9.93;;;6.97;;
7361;SDS011;3721;44.490;11.220;2022-07-21T08:45:15;12.33;;;6.70;;
7361;SDS011;3721;44.490;11.220;2022-07-21T08:47:41;10.47;;;7.00;;
7361;SDS011;3721;44.490;11.220;2022-07-21T08:50:07;18.37;;;6.77;;
7361;SDS011;3721;44.490;11.220;2022-07-21T08:52:34;12.43;;;6.20;;
7361;SDS011;3721;44.490;11.220;2022-07-21T08:55:00;11.90;;;7.70;;
7361;SDS011;3721;44.490;11.220;2022-07-21T08:57:26;12.10;;;7.10;;
7361;SDS011;3721;44.490;11.220;2022-07-21T08:59:52;10.53;;;6.30;;
7361;SDS011;3721;44.490;11.220;2022-07-21T09:02:32;14.43;;;7.23;;
7361;SDS011;3721;44.490;11.220;2022-07-21T09:04:59;8.97;;;7.20;;
7361;SDS011;3721;44.490;11.220;2022-07-21T09:07:26;14.18;;;7.22;;
7361;SDS011;3721;44.490;11.220;2022-07-21T09:09:56;9.63;;;7.25;;
7361;SDS011;3721;44.490;11.220;2022-07-21T09:12:23;9.33;;;5.80;;
7361;SDS011;3721;44.490;11.220;2022-07-21T09:14:50;9.67;;;6.60;;
7361;SDS011;3721;44.490;11.220;2022-07-21T09:17:17;11.32;;;6.15;;
7361;SDS011;3721;44.490;11.220;2022-07-21T09:19:44;9.80;;;6.20;;
7361;SDS011;3721;44.490;11.220;2022-07-21T09:22:16;8.90;;;5.90;;
7361;SDS011;3721;44.490;11.220;2022-07-21T09:24:52;8.77;;;5.30;;
7361;SDS011;3721;44.490;11.220;2022-07-21T09:27:20;6.43;;;4.90;;
7361;SDS011;3721;44.490;11.220;2022-07-21T09:34:53;10.30;;;5.55;;
7361;SDS011;3721;44.490;11.220;2022-07-21T09:37:32;9.23;;;5.40;;
7361;SDS011;3721;44.490;11.220;2022-07-21T09:39:59;9.57;;;5.27;;
7361;SDS011;3721;44.490;11.220;2022-07-21T09:42:51;8.23;;;5.00;;
7361;SDS011;3721;44.490;11.220;2022-07-21T09:45:17;10.20;;;5.60;;
7361;SDS011;3721;44.490;11.220;2022-07-21T09:47:45;7.57;;;4.93;;
7361;SDS011;3721;44.490;11.220;2022-07-21T09:50:12;8.43;;;5.33;;
7361;SDS011;3721;44.490;11.220;2022-07-21T09:52:40;10.30;;;4.87;;
7361;SDS011;3721;44.490;11.220;2022-07-21T09:55:11;18.57;;;5.23;;
7361;SDS011;3721;44.490;11.220;2022-07-21T09:57:38;6.90;;;4.43;;
7361;SDS011;3721;44.490;11.220;2022-07-21T10:00:05;11.90;;;4.77;;
7361;SDS011;3721;44.490;11.220;2022-07-21T10:02:34;6.27;;;4.23;;
7361;SDS011;3721;44.490;11.220;2022-07-21T10:05:04;6.28;;;4.20;;
7361;SDS011;3721;44.490;11.220;2022-07-21T10:07:32;7.43;;;4.45;;
7361;SDS011;3721;44.490;11.220;2022-07-21T10:10:00;7.00;;;4.13;;
7361;SDS011;3721;44.490;11.220;2022-07-21T10:12:27;6.93;;;4.47;;
7361;SDS011;3721;44.490;11.220;2022-07-21T10:14:53;6.60;;;4.43;;
7361;SDS011;3721;44.490;11.220;2022-07-21T10:17:22;6.85;;;3.80;;
7361;SDS011;3721;44.490;11.220;2022-07-21T10:22:44;5.07;;;3.63;;
7361;SDS011;3721;44.490;11.220;2022-07-21T10:25:34;7.60;;;3.78;;
7361;SDS011;3721;44.490;11.220;2022-07-21T10:30:40;5.60;;;3.60;;
7361;SDS011;3721;44.490;11.220;2022-07-21T10:33:14;5.05;;;3.50;;
7361;SDS011;3721;44.490;11.220;2022-07-21T10:35:44;8.77;;;3.40;;
7361;SDS011;3721;44.490;11.220;2022-07-21T10:40:53;6.47;;;3.83;;
7361;SDS011;3721;44.490;11.220;2022-07-21T10:45:50;7.80;;;3.65;;
7361;SDS011;3721;44.490;11.220;2022-07-21T10:51:02;8.40;;;4.00;;
7361;SDS011;3721;44.490;11.220;2022-07-21T10:53:29;7.95;;;3.83;;
7361;SDS011;3721;44.490;11.220;2022-07-21T10:55:55;6.38;;;4.22;;
7361;SDS011;3721;44.490;11.220;2022-07-21T11:01:24;6.47;;;4.13;;
7361;SDS011;3721;44.490;11.220;2022-07-21T11:03:43;9.68;;;4.28;;
7361;SDS011;3721;44.490;11.220;2022-07-21T11:08:47;5.53;;;3.15;;
7361;SDS011;3721;44.490;11.220;2022-07-21T11:11:19;6.68;;;5.00;;
7361;SDS011;3721;44.490;11.220;2022-07-21T11:22:19;8.93;;;4.30;;
7361;SDS011;3721;44.490;11.220;2022-07-21T11:24:50;9.95;;;4.82;;
7361;SDS011;3721;44.490;11.220;2022-07-21T11:27:21;8.20;;;4.18;;
7361;SDS011;3721;44.490;11.220;2022-07-21T11:29:48;6.85;;;4.63;;
7361;SDS011;3721;44.490;11.220;2022-07-21T11:32:16;7.10;;;4.30;;
7361;SDS011;3721;44.490;11.220;2022-07-21T11:34:56;6.72;;;4.45;;
7361;SDS011;3721;44.490;11.220;2022-07-21T11:37:27;7.53;;;4.60;;
7361;SDS011;3721;44.490;11.220;2022-07-21T11:40:07;9.38;;;4.35;;
7361;SDS011;3721;44.490;11.220;2022-07-21T11:42:37;14.25;;;4.03;;
7361;SDS011;3721;44.490;11.220;2022-07-21T11:45:03;10.23;;;3.70;;
7361;SDS011;3721;44.490;11.220;2022-07-21T11:47:30;6.68;;;3.72;;
7361;SDS011;3721;44.490;11.220;2022-07-21T11:49:57;8.18;;;4.60;;
7361;SDS011;3721;44.490;11.220;2022-07-21T11:52:32;5.25;;;3.25;;
7361;SDS011;3721;44.490;11.220;2022-07-21T11:54:59;7.78;;;4.05;;
7361;SDS011;3721;44.490;11.220;2022-07-21T11:57:27;7.63;;;4.13;;
7361;SDS011;3721;44.490;11.220;2022-07-21T11:59:53;7.50;;;4.00;;
7361;SDS011;3721;44.490;11.220;2022-07-21T12:02:26;12.68;;;3.78;;
7361;SDS011;3721;44.490;11.220;2022-07-21T12:04:55;5.65;;;3.65;;
7361;SDS011;3721;44.490;11.220;2022-07-21T12:07:36;5.63;;;3.60;;
7361;SDS011;3721;44.490;11.220;2022-07-21T12:10:09;5.47;;;4.05;;
7361;SDS011;3721;44.490;11.220;2022-07-21T12:13:05;10.23;;;4.20;;
7361;SDS011;3721;44.490;11.220;2022-07-21T12:15:32;8.30;;;4.45;;
7361;SDS011;3721;44.490;11.220;2022-07-21T12:18:03;8.50;;;4.38;;
7361;SDS011;3721;44.490;11.220;2022-07-21T12:22:58;9.70;;;4.30;;
7361;SDS011;3721;44.490;11.220;2022-07-21T12:25:42;8.30;;;4.00;;
7361;SDS011;3721;44.490;11.220;2022-07-21T12:28:08;6.72;;;3.85;;
7361;SDS011;3721;44.490;11.220;2022-07-21T12:30:36;12.20;;;4.45;;
7361;SDS011;3721;44.490;11.220;2022-07-21T12:33:13;5.70;;;3.58;;
7361;SDS011;3721;44.490;11.220;2022-07-21T12:36:07;7.82;;;3.70;;
7361;SDS011;3721;44.490;11.220;2022-07-21T12:38:43;5.47;;;3.63;;
7361;SDS011;3721;44.490;11.220;2022-07-21T12:41:11;5.78;;;3.83;;
7361;SDS011;3721;44.490;11.220;2022-07-21T12:43:39;6.68;;;3.60;;
7361;SDS011;3721;44.490;11.220;2022-07-21T12:48:40;14.10;;;3.58;;
7361;SDS011;3721;44.490;11.220;2022-07-21T12:51:13;9.23;;;4.20;;
7361;SDS011;3721;44.490;11.220;2022-07-21T12:56:09;6.43;;;3.80;;
7361;SDS011;3721;44.490;11.220;2022-07-21T12:58:40;5.75;;;3.92;;
7361;SDS011;3721;44.490;11.220;2022-07-21T13:01:07;8.73;;;3.20;;
7361;SDS011;3721;44.490;11.220;2022-07-21T13:03:33;6.65;;;3.47;;
7361;SDS011;3721;44.490;11.220;2022-07-21T13:06:00;6.75;;;3.67;;
7361;SDS011;3721;44.490;11.220;2022-07-21T13:08:27;7.22;;;3.50;;
7361;SDS011;3721;44.490;11.220;2022-07-21T13:10:53;8.27;;;3.78;;
7361;SDS011;3721;44.490;11.220;2022-07-21T13:13:19;10.73;;;4.20;;
7361;SDS011;3721;44.490;11.220;2022-07-21T13:15:45;8.85;;;3.83;;
7361;SDS011;3721;44.490;11.220;2022-07-21T13:18:11;7.93;;;4.00;;
7361;SDS011;3721;44.490;11.220;2022-07-21T13:20:37;10.68;;;4.07;;
7361;SDS011;3721;44.490;11.220;2022-07-21T13:23:03;6.43;;;3.78;;
7361;SDS011;3721;44.490;11.220;2022-07-21T13:25:30;6.65;;;3.25;;
7361;SDS011;3721;44.490;11.220;2022-07-21T13:27:55;7.15;;;3.45;;
7361;SDS011;3721;44.490;11.220;2022-07-21T13:30:21;5.20;;;3.40;;
7361;SDS011;3721;44.490;11.220;2022-07-21T13:32:47;8.25;;;4.05;;
7361;SDS011;3721;44.490;11.220;2022-07-21T13:35:13;8.02;;;4.15;;
7361;SDS011;3721;44.490;11.220;2022-07-21T13:37:39;7.15;;;4.05;;
7361;SDS011;3721;44.490;11.220;2022-07-21T13:40:06;10.10;;;3.75;;
7361;SDS011;3721;44.490;11.220;2022-07-21T13:42:32;7.95;;;4.32;;
7361;SDS011;3721;44.490;11.220;2022-07-21T13:44:58;7.18;;;3.72;;
7361;SDS011;3721;44.490;11.220;2022-07-21T13:47:24;6.55;;;3.63;;
7361;SDS011;3721;44.490;11.220;2022-07-21T13:49:49;8.35;;;3.92;;
7361;SDS011;3721;44.490;11.220;2022-07-21T13:52:15;9.23;;;4.32;;
7361;SDS011;3721;44.490;11.220;2022-07-21T13:54:41;8.25;;;3.33;;
7361;SDS011;3721;44.490;11.220;2022-07-21T13:57:07;7.55;;;3.88;;
7361;SDS011;3721;44.490;11.220;2022-07-21T13:59:32;6.50;;;3.30;;
7361;SDS011;3721;44.490;11.220;2022-07-21T14:01:59;5.03;;;3.75;;
7361;SDS011;3721;44.490;11.220;2022-07-21T14:04:24;9.60;;;3.60;;
7361;SDS011;3721;44.490;11.220;2022-07-21T14:06:50;4.85;;;3.20;;
7361;SDS011;3721;44.490;11.220;2022-07-21T14:09:17;6.43;;;3.45;;
7361;SDS011;3721;44.490;11.220;2022-07-21T14:11:44;11.00;;;3.88;;
7361;SDS011;3721;44.490;11.220;2022-07-21T14:14:10;6.75;;;3.42;;
7361;SDS011;3721;44.490;11.220;2022-07-21T14:16:42;6.13;;;4.30;;
7361;SDS011;3721;44.490;11.220;2022-07-21T14:19:08;6.20;;;3.55;;
7361;SDS011;3721;44.490;11.220;2022-07-21T14:21:34;7.32;;;3.55;;
7361;SDS011;3721;44.490;11.220;2022-07-21T14:24:00;11.07;;;3.28;;
7361;SDS011;3721;44.490;11.220;2022-07-21T14:26:44;9.40;;;3.60;;
7361;SDS011;3721;44.490;11.220;2022-07-21T14:29:10;5.28;;;3.40;;
7361;SDS011;3721;44.490;11.220;2022-07-21T14:31:35;9.35;;;3.90;;
7361;SDS011;3721;44.490;11.220;2022-07-21T14:34:01;4.95;;;3.17;;
7361;SDS011;3721;44.490;11.220;2022-07-21T14:36:27;10.20;;;3.38;;
7361;SDS011;3721;44.490;11.220;2022-07-21T14:38:53;5.35;;;3.72;;
7361;SDS011;3721;44.490;11.220;2022-07-21T14:41:19;6.18;;;3.30;;
7361;SDS011;3721;44.490;11.220;2022-07-21T14:43:45;4.28;;;3.05;;
7361;SDS011;3721;44.490;11.220;2022-07-21T14:46:13;6.00;;;3.55;;
7361;SDS011;3721;44.490;11.220;2022-07-21T14:48:40;5.93;;;2.92;;
7361;SDS011;3721;44.490;11.220;2022-07-21T14:51:05;6.43;;;3.50;;
7361;SDS011;3721;44.490;11.220;2022-07-21T14:53:31;7.25;;;3.50;;
7361;SDS011;3721;44.490;11.220;2022-07-21T14:55:57;5.88;;;3.55;;
7361;SDS011;3721;44.490;11.220;2022-07-21T14:58:23;6.95;;;3.53;;
7361;SDS011;3721;44.490;11.220;2022-07-21T15:00:49;10.50;;;3.05;;
7361;SDS011;3721;44.490;11.220;2022-07-21T15:03:14;7.80;;;3.90;;
7361;SDS011;3721;44.490;11.220;2022-07-21T15:05:40;6.07;;;3.95;;
7361;SDS011;3721;44.490;11.220;2022-07-21T15:08:06;7.30;;;4.07;;
7361;SDS011;3721;44.490;11.220;2022-07-21T15:10:33;6.22;;;3.50;;
7361;SDS011;3721;44.490;11.220;2022-07-21T15:12:58;9.80;;;3.30;;
7361;SDS011;3721;44.490;11.220;2022-07-21T15:15:24;10.95;;;3.97;;
7361;SDS011;3721;44.490;11.220;2022-07-21T15:17:50;5.72;;;3.40;;
7361;SDS011;3721;44.490;11.220;2022-07-21T15:20:16;11.90;;;3.63;;
7361;SDS011;3721;44.490;11.220;2022-07-21T15:22:42;4.93;;;2.88;;
7361;SDS011;3721;44.490;11.220;2022-07-21T15:25:08;5.85;;;3.47;;
7361;SDS011;3721;44.490;11.220;2022-07-21T15:27:39;5.22;;;3.30;;
7361;SDS011;3721;44.490;11.220;2022-07-21T15:30:08;9.95;;;3.75;;
7361;SDS011;3721;44.490;11.220;2022-07-21T15:32:35;7.07;;;3.85;;
7361;SDS011;3721;44.490;11.220;2022-07-21T15:35:01;6.65;;;3.80;;